Time,TemperatureF,DewpointF,PressureIn,WindDirection,WindDirectionDegrees,WindSpeedMPH,WindSpeedGustMPH,Humidity,HourlyPrecipIn,Conditions,Clouds,dailyrainin,SoftwareType,DateUTC
2013-01-24 00:17:00,37.5,29.0,30.34,SSE,156,1.0,5.0,70,0.00,,,0.00,weatherlink.com 1.10,2013-01-24 05:17:00,
2013-01-24 00:32:00,36.9,29.0,30.34,SSW,207,2.0,8.0,72,0.00,,,0.00,weatherlink.com 1.10,2013-01-24 05:32:00,
2013-01-24 00:47:00,37.9,30.0,30.34,SW,233,3.0,8.0,73,0.00,,,0.00,weatherlink.com 1.10,2013-01-24 05:47:00,
2013-01-24 01:03:00,38.6,31.0,30.33,SW,233,1.0,10.0,73,0.00,,,0.00,weatherlink.com 1.10,2013-01-24 06:03:00,
2013-01-24 01:18:00,38.8,32.0,30.32,WSW,250,3.0,8.0,75,0.00,,,0.00,weatherlink.com 1.10,2013-01-24 06:18:00,
2013-01-24 01:33:00,38.9,32.0,30.31,NNW,328,3.0,9.0,76,0.00,,,0.00,weatherlink.com 1.10,2013-01-24 06:33:00,
2013-01-24 01:48:00,38.8,32.0,30.32,SE,138,0.0,7.0,77,0.00,,,0.00,weatherlink.com 1.10,2013-01-24 06:48:00,
2013-01-24 02:03:00,38.9,32.0,30.31,East,84,7.0,10.0,76,0.00,,,0.00,weatherlink.com 1.10,2013-01-24 07:03:00,
2013-01-24 02:18:00,39.1,32.0,30.30,South,190,1.0,11.0,75,0.00,,,0.00,weatherlink.com 1.10,2013-01-24 07:18:00,
2013-01-24 02:33:00,39.1,31.0,30.31,NNW,333,3.0,14.0,74,0.00,,,0.00,weatherlink.com 1.10,2013-01-24 07:33:00,
2013-01-24 02:48:00,38.7,31.0,30.31,NNE,25,4.0,10.0,74,0.00,,,0.00,weatherlink.com 1.10,2013-01-24 07:48:00,
2013-01-24 03:03:00,38.5,31.0,30.31,SE,124,2.0,11.0,74,0.00,,,0.00,weatherlink.com 1.10,2013-01-24 08:03:00,
2013-01-24 03:18:00,38.3,31.0,30.30,WNW,298,4.0,7.0,74,0.00,,,0.00,weatherlink.com 1.10,2013-01-24 08:18:00,
2013-01-24 03:33:00,38.2,31.0,30.30,SSE,158,3.0,7.0,74,0.00,,,0.00,weatherlink.com 1.10,2013-01-24 08:33:00,
2013-01-24 03:48:00,38.1,31.0,30.30,SSW,207,3.0,6.0,75,0.00,,,0.00,weatherlink.com 1.10,2013-01-24 08:48:00,
2013-01-24 04:03:00,38.0,31.0,30.30,NW,319,4.0,9.0,76,0.00,,,0.00,weatherlink.com 1.10,2013-01-24 09:03:00,
2013-01-24 04:18:00,37.9,31.0,30.30,East,101,4.0,13.0,75,0.00,,,0.00,weatherlink.com 1.10,2013-01-24 09:18:00,
2013-01-24 04:33:00,37.7,31.0,30.30,WSW,250,2.0,8.0,76,0.00,,,0.00,weatherlink.com 1.10,2013-01-24 09:33:00,
2013-01-24 04:48:00,37.6,31.0,30.30,SW,217,3.0,14.0,76,0.00,,,0.00,weatherlink.com 1.10,2013-01-24 09:48:00,
2013-01-24 05:03:00,37.2,30.0,30.30,NNW,333,5.0,8.0,76,0.00,,,0.00,weatherlink.com 1.10,2013-01-24 10:03:00,
2013-01-24 05:18:00,37.0,30.0,30.30,SW,218,2.0,10.0,76,0.00,,,0.00,weatherlink.com 1.10,2013-01-24 10:18:00,
2013-01-24 05:33:00,36.5,29.0,30.31,NE,35,2.0,7.0,75,0.00,,,0.00,weatherlink.com 1.10,2013-01-24 10:33:00,
2013-01-24 05:48:00,36.0,28.0,30.30,NW,307,4.0,7.0,74,0.00,,,0.00,weatherlink.com 1.10,2013-01-24 10:48:00,
2013-01-24 06:03:00,35.8,27.0,30.31,SW,214,2.0,9.0,71,0.00,,,0.00,weatherlink.com 1.10,2013-01-24 11:03:00,
2013-01-24 06:33:00,34.8,27.0,30.32,SW,221,3.0,11.0,73,0.00,,,0.00,weatherlink.com 1.10,2013-01-24 11:33:00,
2013-01-24 06:48:00,34.8,27.0,30.32,WNW,301,3.0,8.0,72,0.00,,,0.00,weatherlink.com 1.10,2013-01-24 11:48:00,
2013-01-24 07:03:00,34.5,26.0,30.32,NW,311,3.0,7.0,71,0.00,,,0.00,weatherlink.com 1.10,2013-01-24 12:03:00,
2013-01-24 07:18:00,34.2,25.0,30.32,West,274,1.0,8.0,70,0.00,,,0.00,weatherlink.com 1.10,2013-01-24 12:18:00,
2013-01-24 07:48:00,33.9,24.0,30.33,NW,315,3.0,9.0,66,0.00,,,0.00,weatherlink.com 1.10,2013-01-24 12:48:00,
2013-01-24 08:03:00,33.3,23.0,30.34,WNW,300,3.0,9.0,65,0.00,,,0.00,weatherlink.com 1.10,2013-01-24 13:03:00,
2013-01-24 08:18:00,33.5,21.0,30.35,NW,308,8.0,11.0,61,0.00,,,0.00,weatherlink.com 1.10,2013-01-24 13:18:00,
2013-01-24 08:33:00,33.7,20.0,30.34,WSW,238,9.0,11.0,58,0.00,,,0.00,weatherlink.com 1.10,2013-01-24 13:33:00,
2013-01-24 08:48:00,34.0,18.0,30.35,SW,228,8.0,8.0,53,0.00,,,0.00,weatherlink.com 1.10,2013-01-24 13:48:00,
2013-01-24 09:04:00,33.8,18.0,30.35,WSW,240,2.0,7.0,53,0.00,,,0.00,weatherlink.com 1.10,2013-01-24 14:04:00,
2013-01-24 09:19:00,33.6,17.0,30.36,West,278,0.0,5.0,50,0.00,,,0.00,weatherlink.com 1.10,2013-01-24 14:19:00,
2013-01-24 09:49:00,34.6,13.0,30.37,SW,236,3.0,7.0,41,0.00,,,0.00,weatherlink.com 1.10,2013-01-24 14:49:00,
2013-01-24 10:04:00,35.2,14.0,30.37,SW,218,0.0,8.0,41,0.00,,,0.00,weatherlink.com 1.10,2013-01-24 15:04:00,
2013-01-24 10:19:00,36.1,12.0,30.38,NNW,329,3.0,11.0,37,0.00,,,0.00,weatherlink.com 1.10,2013-01-24 15:19:00,
2013-01-24 10:34:00,36.9,9.0,30.37,NW,305,4.0,6.0,32,0.00,,,0.00,weatherlink.com 1.10,2013-01-24 15:34:00,
2013-01-24 10:49:00,37.4,9.0,30.39,West,277,2.0,12.0,31,0.00,,,0.00,weatherlink.com 1.10,2013-01-24 15:49:00,
2013-01-24 11:04:00,37.3,12.0,30.40,NNE,33,2.0,11.0,35,0.00,,,0.00,weatherlink.com 1.10,2013-01-24 16:04:00,
2013-01-24 11:19:00,37.5,10.0,30.39,NNW,332,2.0,7.0,32,0.00,,,0.00,weatherlink.com 1.10,2013-01-24 16:19:00,
2013-01-24 11:34:00,37.8,12.0,30.41,ENE,58,5.0,7.0,34,0.00,,,0.00,weatherlink.com 1.10,2013-01-24 16:34:00,
2013-01-24 11:49:00,38.2,11.0,30.40,NNE,20,3.0,9.0,32,0.00,,,0.00,weatherlink.com 1.10,2013-01-24 16:49:00,
2013-01-24 12:04:00,39.0,7.0,30.41,NE,49,6.0,9.0,27,0.00,,,0.00,weatherlink.com 1.10,2013-01-24 17:04:00,
2013-01-24 12:19:00,39.2,8.0,30.40,ENE,78,4.0,9.0,27,0.00,,,0.00,weatherlink.com 1.10,2013-01-24 17:19:00,
2013-01-24 12:34:00,38.8,10.0,30.41,NNE,30,5.0,14.0,30,0.00,,,0.00,weatherlink.com 1.10,2013-01-24 17:34:00,
2013-01-24 12:49:00,39.0,7.0,30.41,NNW,346,1.0,6.0,27,0.00,,,0.00,weatherlink.com 1.10,2013-01-24 17:49:00,
2013-01-24 13:04:00,39.2,7.0,30.40,ESE,119,2.0,6.0,26,0.00,,,0.00,weatherlink.com 1.10,2013-01-24 18:04:00,
2013-01-24 13:19:00,39.3,6.0,30.41,NNW,341,2.0,6.0,25,0.00,,,0.00,weatherlink.com 1.10,2013-01-24 18:19:00,
2013-01-24 13:34:00,39.1,7.0,30.40,NW,319,1.0,5.0,26,0.00,,,0.00,weatherlink.com 1.10,2013-01-24 18:34:00,
2013-01-24 13:49:00,38.9,6.0,30.41,WNW,288,3.0,7.0,25,0.00,,,0.00,weatherlink.com 1.10,2013-01-24 18:49:00,
2013-01-24 14:04:00,38.3,5.0,30.40,NW,307,1.0,7.0,25,0.00,,,0.00,weatherlink.com 1.10,2013-01-24 19:04:00,
2013-01-24 14:19:00,38.1,6.0,30.40,WNW,297,3.0,5.0,26,0.00,,,0.00,weatherlink.com 1.10,2013-01-24 19:19:00,
2013-01-24 14:34:00,38.6,5.0,30.40,WNW,299,1.0,4.0,25,0.00,,,0.00,weatherlink.com 1.10,2013-01-24 19:34:00,
2013-01-24 14:49:00,38.4,2.0,30.41,NNE,12,2.0,7.0,22,0.00,,,0.00,weatherlink.com 1.10,2013-01-24 19:49:00,
2013-01-24 15:04:00,37.9,3.0,30.41,NNE,12,1.0,5.0,23,0.00,,,0.00,weatherlink.com 1.10,2013-01-24 20:04:00,
2013-01-24 15:19:00,37.9,4.0,30.42,WNW,290,2.0,2.0,24,0.00,,,0.00,weatherlink.com 1.10,2013-01-24 20:19:00,
2013-01-24 15:34:00,38.1,2.0,30.43,WNW,302,2.0,3.0,22,0.00,,,0.00,weatherlink.com 1.10,2013-01-24 20:34:00,
2013-01-24 15:49:00,38.0,1.0,30.43,NNW,329,0.0,4.0,21,0.00,,,0.00,weatherlink.com 1.10,2013-01-24 20:49:00,
2013-01-24 16:04:00,37.8,3.0,30.43,NNW,345,1.0,3.0,23,0.00,,,0.00,weatherlink.com 1.10,2013-01-24 21:04:00,
2013-01-24 16:19:00,37.3,3.0,30.43,NNE,19,2.0,3.0,24,0.00,,,0.00,weatherlink.com 1.10,2013-01-24 21:19:00,
2013-01-24 16:34:00,36.7,0.0,30.44,SSE,158,1.0,2.0,21,0.00,,,0.00,weatherlink.com 1.10,2013-01-24 21:34:00,
2013-01-24 16:49:00,36.3,0.0,30.45,SSE,158,1.0,1.0,21,0.00,,,0.00,weatherlink.com 1.10,2013-01-24 21:49:00,
2013-01-24 17:04:00,35.7,4.0,30.45,SSE,160,0.0,1.0,26,0.00,,,0.00,weatherlink.com 1.10,2013-01-24 22:04:00,
2013-01-24 17:20:00,35.2,3.0,30.45,SSE,159,0.0,0.0,25,0.00,,,0.00,weatherlink.com 1.10,2013-01-24 22:20:00,
2013-01-24 17:50:00,32.9,7.0,30.46,SSE,159,2.0,3.0,34,0.00,,,0.00,weatherlink.com 1.10,2013-01-24 22:50:00,
2013-01-24 18:05:00,31.8,9.0,30.47,SSE,155,3.0,3.0,38,0.00,,,0.00,weatherlink.com 1.10,2013-01-24 23:05:00,
2013-01-24 18:20:00,31.1,7.0,30.48,SSE,162,3.0,3.0,37,0.00,,,0.00,weatherlink.com 1.10,2013-01-24 23:20:00,
2013-01-24 18:35:00,30.6,7.0,30.48,SSE,164,2.0,3.0,37,0.00,,,0.00,weatherlink.com 1.10,2013-01-24 23:35:00,
2013-01-24 18:50:00,30.2,8.0,30.48,SSE,163,2.0,3.0,39,0.00,,,0.00,weatherlink.com 1.10,2013-01-24 23:50:00,
2013-01-24 19:05:00,30.1,8.0,30.50,SSE,163,2.0,3.0,40,0.00,,,0.00,weatherlink.com 1.10,2013-01-25 00:05:00,
2013-01-24 19:20:00,29.3,10.0,30.50,SSE,159,2.0,3.0,44,0.00,,,0.00,weatherlink.com 1.10,2013-01-25 00:20:00,
2013-01-24 19:35:00,29.0,8.0,30.50,SSE,159,2.0,3.0,42,0.00,,,0.00,weatherlink.com 1.10,2013-01-25 00:35:00,
2013-01-24 19:50:00,28.6,10.0,30.51,SSE,159,2.0,3.0,45,0.00,,,0.00,weatherlink.com 1.10,2013-01-25 00:50:00,
2013-01-24 20:05:00,28.5,10.0,30.51,SSE,160,2.0,3.0,46,0.00,,,0.00,weatherlink.com 1.10,2013-01-25 01:05:00,
2013-01-24 20:20:00,28.1,9.0,30.51,SSE,160,1.0,2.0,45,0.00,,,0.00,weatherlink.com 1.10,2013-01-25 01:20:00,
2013-01-24 20:35:00,28.1,10.0,30.51,SSE,160,2.0,2.0,46,0.00,,,0.00,weatherlink.com 1.10,2013-01-25 01:35:00,
2013-01-24 20:51:00,27.9,9.0,30.51,SSE,159,1.0,2.0,45,0.00,,,0.00,weatherlink.com 1.10,2013-01-25 01:51:00,
2013-01-24 21:06:00,27.8,10.0,30.52,SSE,159,1.0,2.0,47,0.00,,,0.00,weatherlink.com 1.10,2013-01-25 02:06:00,
2013-01-24 21:21:00,27.5,9.0,30.52,SSE,159,0.0,0.0,45,0.00,,,0.00,weatherlink.com 1.10,2013-01-25 02:21:00,
2013-01-24 21:36:00,27.2,9.0,30.52,SSE,159,0.0,0.0,47,0.00,,,0.00,weatherlink.com 1.10,2013-01-25 02:36:00,
2013-01-24 21:51:00,26.9,9.0,30.53,SSE,159,0.0,0.0,46,0.00,,,0.00,weatherlink.com 1.10,2013-01-25 02:51:00,
2013-01-24 22:06:00,26.6,9.0,30.53,SSE,159,0.0,0.0,47,0.00,,,0.00,weatherlink.com 1.10,2013-01-25 03:06:00,
2013-01-24 22:21:00,26.6,8.0,30.53,SSE,159,0.0,0.0,45,0.00,,,0.00,weatherlink.com 1.10,2013-01-25 03:21:00,
2013-01-24 22:36:00,26.1,9.0,30.53,SSE,159,0.0,0.0,49,0.00,,,0.00,weatherlink.com 1.10,2013-01-25 03:36:00,
2013-01-24 22:51:00,25.8,8.0,30.53,SSE,159,0.0,0.0,48,0.00,,,0.00,weatherlink.com 1.10,2013-01-25 03:51:00,
2013-01-24 23:06:00,26.0,8.0,30.53,South,183,1.0,2.0,47,0.00,,,0.00,weatherlink.com 1.10,2013-01-25 04:06:00,
2013-01-24 23:21:00,25.9,10.0,30.53,SSE,163,3.0,3.0,51,0.00,,,0.00,weatherlink.com 1.10,2013-01-25 04:21:00,
2013-01-24 23:36:00,26.1,10.0,30.54,SSW,197,0.0,2.0,50,0.00,,,0.00,weatherlink.com 1.10,2013-01-25 04:36:00,
2013-01-24 23:51:00,26.0,11.0,30.55,SSW,197,1.0,5.0,54,0.00,,,0.00,weatherlink.com 1.10,2013-01-25 04:51:00,